createdAt,value
2023-02-27T00:00:57.110Z,52.90
2023-02-27T00:01:58.846Z,52.45
2023-02-27T00:03:00.616Z,53.04
2023-02-27T00:04:02.538Z,52.27
2023-02-27T00:05:04.416Z,52.19
2023-02-27T00:06:06.368Z,51.93
2023-02-27T00:07:08.917Z,52.00
2023-02-27T00:08:10.624Z,51.75
2023-02-27T00:09:12.414Z,51.78
2023-02-27T00:10:14.378Z,51.83
2023-02-27T00:11:16.231Z,50.85
2023-02-27T00:12:18.071Z,51.10
2023-02-27T00:13:19.921Z,51.95
2023-02-27T00:14:22.567Z,52.06
2023-02-27T00:15:24.659Z,52.34
2023-02-27T00:16:26.508Z,52.38
2023-02-27T00:17:29.873Z,52.92
2023-02-27T00:18:31.710Z,52.66
2023-02-27T00:19:33.460Z,52.13
2023-02-27T00:20:38.355Z,52.29
2023-02-27T00:21:40.291Z,52.21
2023-02-27T00:22:43.110Z,52.02
2023-02-27T00:23:44.803Z,51.71
2023-02-27T00:24:46.535Z,52.24
2023-02-27T00:25:48.309Z,52.43
2023-02-27T00:26:50.013Z,53.09
2023-02-27T00:27:53.063Z,53.34
2023-02-27T00:28:54.784Z,53.77
2023-02-27T00:29:56.484Z,54.18
2023-02-27T00:30:58.772Z,54.68
2023-02-27T00:32:00.647Z,54.35
2023-02-27T00:33:03.648Z,54.51
2023-02-27T00:34:05.338Z,54.04
2023-02-27T00:35:09.177Z,54.40
2023-02-27T00:36:10.978Z,53.60
2023-02-27T00:37:12.770Z,53.53
2023-02-27T00:38:14.470Z,53.79
2023-02-27T00:39:16.161Z,53.84
2023-02-27T00:40:18.265Z,53.91
2023-02-27T00:41:20.022Z,53.87
2023-02-27T00:42:22.280Z,54.22
2023-02-27T00:43:24.026Z,54.71
2023-02-27T00:44:25.728Z,54.84
2023-02-27T00:45:27.591Z,55.40
2023-02-27T00:46:29.385Z,55.45
2023-02-27T00:47:31.345Z,54.86
2023-02-27T00:48:33.308Z,54.91
2023-02-27T00:49:35.010Z,54.90
2023-02-27T00:50:37.214Z,55.03
2023-02-27T00:51:39.053Z,54.72
2023-02-27T00:52:41.268Z,54.91
2023-02-27T00:53:42.956Z,54.70
2023-02-27T00:54:44.720Z,54.71
2023-02-27T00:55:46.508Z,55.02
2023-02-27T00:56:48.212Z,54.99
2023-02-27T00:57:50.061Z,55.13
2023-02-27T00:58:51.800Z,55.03
2023-02-27T00:59:53.505Z,54.47
2023-02-27T01:00:55.290Z,54.03
2023-02-27T01:01:57.051Z,53.55
2023-02-27T01:02:58.764Z,54.66
2023-02-27T01:04:01.080Z,55.01
2023-02-27T01:05:03.529Z,55.04
2023-02-27T01:06:05.696Z,54.41
2023-02-27T01:07:08.334Z,54.86
2023-02-27T01:08:10.050Z,55.06
2023-02-27T01:09:11.824Z,54.80
2023-02-27T01:10:13.867Z,55.14
2023-02-27T01:11:15.608Z,55.59
2023-02-27T01:12:17.341Z,55.74
2023-02-27T01:13:19.165Z,56.12
2023-02-27T01:14:20.912Z,56.02
2023-02-27T01:15:22.684Z,55.93
2023-02-27T01:16:24.579Z,56.06
2023-02-27T01:17:26.380Z,55.99
2023-02-27T01:18:28.089Z,55.62
2023-02-27T01:19:29.843Z,56.12
2023-02-27T01:20:31.531Z,56.10
2023-02-27T01:21:33.238Z,56.27
2023-02-27T01:22:35.285Z,56.43
2023-02-27T01:23:37.049Z,56.50
2023-02-27T01:24:38.841Z,57.69
2023-02-27T01:25:40.551Z,57.96
2023-02-27T01:26:42.437Z,57.64
2023-02-27T01:27:44.230Z,57.33
2023-02-27T01:28:46.329Z,57.10
2023-02-27T01:29:48.014Z,56.78
2023-02-27T01:30:49.770Z,56.27
2023-02-27T01:31:51.684Z,55.84
2023-02-27T01:32:53.502Z,55.16
2023-02-27T01:33:55.290Z,55.15
2023-02-27T01:34:56.995Z,54.87
2023-02-27T01:35:58.713Z,55.90
2023-02-27T01:37:00.437Z,56.41
2023-02-27T01:38:02.197Z,56.58
2023-02-27T01:39:04.100Z,56.70
2023-02-27T01:40:07.379Z,56.45
2023-02-27T01:41:09.174Z,56.47
2023-02-27T01:42:23.573Z,56.02
2023-02-27T01:43:25.343Z,56.02
2023-02-27T01:44:30.201Z,56.00
2023-02-27T01:45:39.511Z,55.81
2023-02-27T01:46:42.202Z,55.68
2023-02-27T01:47:48.477Z,55.72
2023-02-27T01:48:54.468Z,55.80
2023-02-27T01:49:56.198Z,55.72
2023-02-27T01:51:19.229Z,55.36
2023-02-27T01:52:21.332Z,55.50
2023-02-27T01:53:26.703Z,55.13
2023-02-27T01:54:29.972Z,54.42
2023-02-27T01:55:35.249Z,54.02
2023-02-27T01:56:37.123Z,54.72
2023-02-27T01:57:41.051Z,55.25
2023-02-27T01:58:44.828Z,55.55
2023-02-27T01:59:46.670Z,56.08
2023-02-27T02:00:49.136Z,56.22
2023-02-27T02:01:51.463Z,56.73
2023-02-27T02:03:17.293Z,56.90
2023-02-27T02:04:24.167Z,57.18
2023-02-27T02:05:26.892Z,57.75
2023-02-27T02:06:31.820Z,58.18
2023-02-27T02:07:35.079Z,58.57
2023-02-27T02:08:46.633Z,58.80
2023-02-27T02:09:59.372Z,58.49
2023-02-27T02:11:01.304Z,59.08
2023-02-27T02:12:04.941Z,59.45
2023-02-27T02:13:07.752Z,59.70
2023-02-27T02:14:11.055Z,59.63
2023-02-27T02:15:13.088Z,60.10
2023-02-27T02:16:23.747Z,60.15
2023-02-27T02:18:04.437Z,59.95
2023-02-27T02:19:44.067Z,60.06
2023-02-27T02:21:18.903Z,59.82
2023-02-27T02:22:32.607Z,59.00
2023-02-27T02:23:52.326Z,59.57
2023-02-27T02:25:12.377Z,59.27
2023-02-27T02:26:19.943Z,58.57
2023-02-27T02:27:33.616Z,58.14
2023-02-27T02:29:12.682Z,57.79
2023-02-27T02:30:32.956Z,57.87
2023-02-27T02:32:04.389Z,59.05
2023-02-27T02:33:22.367Z,59.47
2023-02-27T02:35:06.358Z,59.74
2023-02-27T02:36:38.559Z,59.44
2023-02-27T02:38:20.922Z,59.13
2023-02-27T02:39:28.757Z,58.94
2023-02-27T02:40:37.646Z,58.39
2023-02-27T02:41:49.493Z,58.14
2023-02-27T02:43:11.177Z,57.98
2023-02-27T02:44:19.318Z,57.70
2023-02-27T02:45:32.203Z,57.67
2023-02-27T02:46:54.702Z,57.80
2023-02-27T02:48:02.730Z,57.70
2023-02-27T02:49:41.632Z,57.32
2023-02-27T02:50:57.541Z,57.29
2023-02-27T02:52:23.288Z,57.14
2023-02-27T02:53:37.058Z,56.76
2023-02-27T02:54:47.401Z,56.80
2023-02-27T02:55:57.141Z,57.36
2023-02-27T02:57:33.714Z,57.17
2023-02-27T02:58:48.976Z,56.82
2023-02-27T02:59:57.143Z,56.79
2023-02-27T03:01:04.918Z,56.56
2023-02-27T03:02:10.921Z,56.51
2023-02-27T03:03:20.424Z,56.44
2023-02-27T03:04:28.087Z,56.42
2023-02-27T03:05:35.446Z,56.36
2023-02-27T03:06:43.376Z,56.02
2023-02-27T03:07:54.066Z,56.13
2023-02-27T03:09:03.139Z,55.89
2023-02-27T03:10:12.126Z,55.96
2023-02-27T03:11:14.275Z,55.60
2023-02-27T03:12:20.148Z,55.63
2023-02-27T03:13:46.450Z,55.64
2023-02-27T03:15:03.082Z,55.54
2023-02-27T03:16:15.686Z,55.42
2023-02-27T03:17:25.048Z,55.12
2023-02-27T03:18:34.998Z,54.93
2023-02-27T03:20:03.844Z,54.91
2023-02-27T03:21:12.528Z,55.00
2023-02-27T03:22:18.868Z,54.22
2023-02-27T03:23:28.391Z,54.29
2023-02-27T03:24:35.306Z,55.22
2023-02-27T03:25:38.519Z,55.03
2023-02-27T03:26:44.772Z,55.29
2023-02-27T03:27:58.915Z,55.25
2023-02-27T03:29:06.636Z,55.09
2023-02-27T03:30:10.853Z,55.96
2023-02-27T03:31:27.204Z,56.17
2023-02-27T03:32:42.740Z,55.70
2023-02-27T03:34:02.178Z,55.66
2023-02-27T03:35:07.306Z,55.25
2023-02-27T03:36:47.229Z,55.21
2023-02-27T03:38:01.583Z,56.07
2023-02-27T03:39:41.808Z,55.33
2023-02-27T03:40:59.116Z,55.50
2023-02-27T03:42:09.869Z,55.53
2023-02-27T03:43:30.346Z,56.10
2023-02-27T03:44:42.018Z,56.35
2023-02-27T03:45:54.799Z,56.21
2023-02-27T03:46:56.866Z,57.12
2023-02-27T03:47:59.102Z,56.90
2023-02-27T03:49:00.853Z,57.04
2023-02-27T03:50:02.622Z,57.24
2023-02-27T03:51:04.818Z,57.74
2023-02-27T03:52:06.749Z,57.66
2023-02-27T03:53:21.133Z,57.52
2023-02-27T03:54:33.745Z,57.27
2023-02-27T03:55:39.873Z,57.11
2023-02-27T03:56:47.999Z,57.30
2023-02-27T03:57:51.134Z,57.27
2023-02-27T03:58:53.836Z,57.67
2023-02-27T03:59:55.762Z,56.80
2023-02-27T04:00:57.636Z,56.49
2023-02-27T04:02:01.068Z,55.70
2023-02-27T04:03:05.133Z,55.57
2023-02-27T04:04:13.425Z,55.13
2023-02-27T04:05:15.160Z,55.24
2023-02-27T04:06:35.939Z,55.52
2023-02-27T04:07:52.645Z,55.73
2023-02-27T04:08:54.287Z,55.65
2023-02-27T04:10:07.941Z,55.52
2023-02-27T04:11:19.209Z,55.16
2023-02-27T04:12:24.083Z,54.98
2023-02-27T04:13:48.706Z,54.60
2023-02-27T04:15:18.311Z,53.90
2023-02-27T04:16:38.179Z,53.46
2023-02-27T04:18:32.268Z,53.47
2023-02-27T04:19:43.582Z,53.59
2023-02-27T04:20:49.717Z,53.39
2023-02-27T04:22:35.222Z,53.77
2023-02-27T04:23:49.046Z,53.65
2023-02-27T04:25:13.504Z,53.25
2023-02-27T04:26:24.248Z,53.33
2023-02-27T04:27:43.963Z,53.01
2023-02-27T04:28:48.701Z,53.09
2023-02-27T04:30:01.441Z,52.56
2023-02-27T04:31:27.675Z,52.42
2023-02-27T04:32:42.038Z,52.65
2023-02-27T04:33:52.052Z,52.95
2023-02-27T04:34:58.664Z,52.65
2023-02-27T04:36:08.453Z,52.69
2023-02-27T04:37:43.538Z,52.26
2023-02-27T04:38:51.684Z,51.95
2023-02-27T04:39:56.322Z,51.97
2023-02-27T04:41:00.362Z,51.95
2023-02-27T04:42:06.629Z,51.61
2023-02-27T04:43:11.856Z,51.31
2023-02-27T04:44:15.760Z,51.53
2023-02-27T04:45:22.205Z,51.09
2023-02-27T04:46:27.900Z,51.66
2023-02-27T04:47:34.882Z,51.97
2023-02-27T04:48:42.992Z,52.68
2023-02-27T04:49:49.078Z,52.83
2023-02-27T04:51:18.583Z,53.28
2023-02-27T04:52:31.855Z,53.78
2023-02-27T04:53:53.025Z,53.79
2023-02-27T04:54:58.377Z,53.83
2023-02-27T04:56:06.981Z,54.04
2023-02-27T04:57:14.254Z,54.43
2023-02-27T04:58:23.350Z,54.81
2023-02-27T04:59:45.097Z,54.76
2023-02-27T05:00:53.670Z,54.82
2023-02-27T05:02:16.231Z,55.10
2023-02-27T05:03:23.099Z,55.60
2023-02-27T05:04:29.356Z,55.56
2023-02-27T05:05:34.060Z,55.96
2023-02-27T05:06:37.976Z,56.04
2023-02-27T05:07:50.661Z,56.36
2023-02-27T05:09:28.918Z,56.68
2023-02-27T05:10:35.290Z,56.90
2023-02-27T05:11:45.295Z,57.26
2023-02-27T05:13:15.316Z,57.48
2023-02-27T05:14:23.300Z,57.32
2023-02-27T05:15:36.564Z,57.60
2023-02-27T05:16:50.245Z,58.34
2023-02-27T05:18:03.875Z,58.71
2023-02-27T05:19:06.919Z,58.68
2023-02-27T05:20:09.534Z,58.76
2023-02-27T05:21:29.440Z,58.92
2023-02-27T05:22:54.425Z,59.66
2023-02-27T05:24:29.710Z,60.43
2023-02-27T05:25:41.428Z,60.83
2023-02-27T05:27:18.047Z,61.09
2023-02-27T05:28:51.730Z,61.53
2023-02-27T05:30:01.708Z,62.21
2023-02-27T05:31:13.827Z,63.29
2023-02-27T05:32:54.053Z,63.60
2023-02-27T05:34:11.307Z,64.88
2023-02-27T05:35:20.444Z,65.13
2023-02-27T05:36:32.967Z,64.99
2023-02-27T05:37:45.372Z,65.30
2023-02-27T05:38:55.524Z,65.14
2023-02-27T05:39:58.962Z,64.92
2023-02-27T05:41:10.431Z,64.90
2023-02-27T05:42:19.795Z,65.16
2023-02-27T05:43:35.861Z,65.27
2023-02-27T05:44:46.337Z,64.72
2023-02-27T05:45:53.453Z,65.05
2023-02-27T05:47:08.831Z,64.52
2023-02-27T05:48:19.845Z,64.51
2023-02-27T05:49:29.279Z,65.06
2023-02-27T05:50:34.168Z,64.50
2023-02-27T05:51:37.673Z,64.67
2023-02-27T05:52:41.644Z,65.07
2023-02-27T05:53:48.668Z,64.55
2023-02-27T05:55:04.004Z,64.66
2023-02-27T05:56:08.536Z,63.99
2023-02-27T05:57:14.836Z,63.60
2023-02-27T05:58:22.963Z,63.19
2023-02-27T05:59:52.319Z,63.31
2023-02-27T06:00:56.005Z,62.85
2023-02-27T06:01:57.851Z,61.40
2023-02-27T06:02:59.666Z,59.52
2023-02-27T06:04:01.865Z,58.95
2023-02-27T06:05:04.237Z,59.34
2023-02-27T06:06:11.372Z,60.01
2023-02-27T06:07:16.327Z,58.41
2023-02-27T06:08:18.024Z,57.79
2023-02-27T06:09:20.653Z,57.70
2023-02-27T06:10:22.424Z,56.86
2023-02-27T06:11:24.121Z,57.11
2023-02-27T06:12:25.889Z,56.49
2023-02-27T06:13:27.570Z,56.47
2023-02-27T06:14:29.330Z,55.75
2023-02-27T06:15:31.048Z,55.88
2023-02-27T06:16:33.100Z,57.72
2023-02-27T06:17:34.967Z,58.66
2023-02-27T06:18:36.679Z,59.00
2023-02-27T06:19:38.385Z,59.30
2023-02-27T06:20:42.467Z,59.73
2023-02-27T06:21:44.295Z,60.28
2023-02-27T06:22:46.104Z,60.56
2023-02-27T06:23:47.837Z,60.75
2023-02-27T06:24:49.544Z,58.89
2023-02-27T06:25:51.255Z,58.93
2023-02-27T06:26:53.511Z,59.44
2023-02-27T06:27:55.242Z,59.17
2023-02-27T06:28:56.980Z,58.73
2023-02-27T06:29:58.754Z,58.50
2023-02-27T06:31:00.482Z,58.44
2023-02-27T06:32:02.233Z,58.69
2023-02-27T06:33:04.120Z,59.49
2023-02-27T06:34:05.880Z,59.88
2023-02-27T06:35:08.072Z,59.87
2023-02-27T06:36:09.856Z,60.64
2023-02-27T06:37:11.614Z,61.94
2023-02-27T06:38:13.315Z,61.82
2023-02-27T06:39:15.217Z,61.81
2023-02-27T06:40:17.159Z,62.29
2023-02-27T06:41:19.313Z,62.18
2023-02-27T06:42:21.370Z,62.10
2023-02-27T06:43:23.294Z,62.45
2023-02-27T06:44:24.988Z,61.88
2023-02-27T06:45:26.702Z,61.68
2023-02-27T06:46:28.811Z,61.24
2023-02-27T06:47:30.745Z,61.26
2023-02-27T06:48:33.516Z,60.99
2023-02-27T06:49:35.239Z,61.11
2023-02-27T06:50:37.056Z,60.90
2023-02-27T06:51:39.398Z,60.57
2023-02-27T06:52:42.100Z,60.77
2023-02-27T06:53:43.844Z,61.03
2023-02-27T06:54:45.583Z,61.70
2023-02-27T06:55:47.356Z,61.39
2023-02-27T06:56:50.445Z,60.73
2023-02-27T06:57:52.328Z,60.50
2023-02-27T06:58:54.067Z,60.59
2023-02-27T06:59:55.807Z,60.95
2023-02-27T07:01:00.323Z,61.58
2023-02-27T07:02:02.074Z,61.70
2023-02-27T07:03:04.737Z,61.61
2023-02-27T07:04:06.508Z,62.28
2023-02-27T07:05:08.807Z,62.06
2023-02-27T07:06:12.225Z,62.29
2023-02-27T07:07:33.230Z,62.75
2023-02-27T07:08:36.680Z,62.48
2023-02-27T07:09:38.434Z,60.95
2023-02-27T07:10:42.972Z,60.21
2023-02-27T07:11:44.700Z,59.09
2023-02-27T07:12:46.431Z,58.53
2023-02-27T07:13:48.142Z,58.76
2023-02-27T07:14:49.913Z,60.13
2023-02-27T07:15:52.485Z,57.21
2023-02-27T07:16:54.269Z,56.81
2023-02-27T07:17:55.992Z,57.16
2023-02-27T07:18:57.765Z,57.30
2023-02-27T07:19:59.668Z,57.26
2023-02-27T07:21:01.389Z,57.47
2023-02-27T07:22:03.872Z,56.53
2023-02-27T07:23:05.620Z,56.10
2023-02-27T07:24:07.580Z,57.07
2023-02-27T07:25:09.826Z,56.11
2023-02-27T07:26:11.564Z,56.05
2023-02-27T07:27:13.292Z,56.78
2023-02-27T07:28:15.423Z,56.04
2023-02-27T07:29:17.340Z,56.28
2023-02-27T07:30:19.721Z,57.12
2023-02-27T07:31:21.527Z,55.89
2023-02-27T07:32:23.525Z,54.92
2023-02-27T07:33:25.787Z,53.84
2023-02-27T07:34:27.487Z,54.61
2023-02-27T07:35:29.360Z,54.56
2023-02-27T07:36:31.649Z,53.35
2023-02-27T07:37:33.360Z,53.98
2023-02-27T07:38:35.075Z,53.51
2023-02-27T07:39:36.832Z,53.00
2023-02-27T07:40:38.577Z,51.76
2023-02-27T07:41:40.296Z,51.00
2023-02-27T07:42:42.261Z,51.22
2023-02-27T07:43:43.979Z,51.20
2023-02-27T07:44:45.671Z,51.24
2023-02-27T07:45:47.529Z,51.56
2023-02-27T07:46:49.352Z,51.68
2023-02-27T07:47:51.149Z,52.43
2023-02-27T07:48:53.764Z,52.78
2023-02-27T07:49:55.453Z,52.40
2023-02-27T07:50:57.595Z,52.15
2023-02-27T07:51:59.287Z,52.28
2023-02-27T07:53:00.999Z,52.47
2023-02-27T07:54:02.702Z,52.08
2023-02-27T07:55:04.635Z,52.11
2023-02-27T07:56:06.603Z,52.94
2023-02-27T07:57:08.431Z,52.43
2023-02-27T07:58:10.156Z,52.69
2023-02-27T07:59:11.863Z,51.85
2023-02-27T08:00:14.447Z,51.60
2023-02-27T08:01:16.164Z,52.02
2023-02-27T08:02:17.968Z,51.71
2023-02-27T08:03:19.747Z,51.02
2023-02-27T08:04:21.606Z,51.76
2023-02-27T08:05:23.394Z,51.07
2023-02-27T08:06:25.592Z,50.96
2023-02-27T08:07:27.610Z,51.34
2023-02-27T08:08:29.860Z,50.10
2023-02-27T08:09:32.050Z,50.61
2023-02-27T08:10:33.775Z,49.32
2023-02-27T08:11:35.546Z,49.18
2023-02-27T08:12:37.364Z,48.14
2023-02-27T08:14:08.901Z,47.75
2023-02-27T08:15:00.786Z,47.75
2023-02-27T08:16:02.537Z,48.94
2023-02-27T08:17:04.351Z,49.21
2023-02-27T08:18:06.163Z,48.87
2023-02-27T08:19:08.403Z,49.63
2023-02-27T08:20:14.243Z,48.57
2023-02-27T08:21:16.054Z,48.60
2023-02-27T08:22:17.973Z,49.48
2023-02-27T08:23:19.660Z,48.39
2023-02-27T08:24:21.832Z,49.05
2023-02-27T08:25:23.622Z,49.15
2023-02-27T08:26:25.710Z,49.57
2023-02-27T08:27:27.717Z,48.32
2023-02-27T08:28:30.019Z,48.24
2023-02-27T08:29:33.100Z,48.17
2023-02-27T08:30:34.890Z,46.34
2023-02-27T08:31:36.972Z,46.50
2023-02-27T08:32:38.942Z,46.38
2023-02-27T08:33:40.849Z,46.38
2023-02-27T08:34:42.602Z,46.71
2023-02-27T08:35:44.471Z,47.16
2023-02-27T08:36:46.595Z,46.62
2023-02-27T08:37:49.860Z,47.22
2023-02-27T08:38:51.619Z,46.68
2023-02-27T08:39:53.315Z,47.39
2023-02-27T08:40:55.183Z,47.46
2023-02-27T08:41:56.906Z,47.37
2023-02-27T08:42:58.597Z,47.66
2023-02-27T08:44:00.335Z,45.73
2023-02-27T08:45:02.886Z,45.38
2023-02-27T08:46:04.818Z,45.63
2023-02-27T08:47:06.606Z,45.14
2023-02-27T08:48:08.646Z,45.38
2023-02-27T08:49:10.469Z,47.32
2023-02-27T08:50:15.657Z,46.63
2023-02-27T08:51:17.430Z,46.41
2023-02-27T08:52:19.201Z,45.46
2023-02-27T08:53:20.912Z,43.35
2023-02-27T08:54:22.660Z,43.95
2023-02-27T08:55:24.462Z,42.80
2023-02-27T08:56:26.964Z,43.72
2023-02-27T08:57:28.986Z,43.46
2023-02-27T08:58:30.747Z,41.98
2023-02-27T08:59:32.541Z,41.67
2023-02-27T09:00:34.299Z,41.27
2023-02-27T09:01:36.067Z,41.21
2023-02-27T09:02:37.820Z,39.76
2023-02-27T09:03:39.557Z,39.40
2023-02-27T09:04:41.239Z,40.36
2023-02-27T09:05:43.543Z,38.67
2023-02-27T09:06:45.969Z,38.39
2023-02-27T09:07:47.644Z,39.21
2023-02-27T09:08:49.354Z,37.96
2023-02-27T09:09:51.087Z,38.79
2023-02-27T09:10:57.216Z,38.95
2023-02-27T09:11:58.954Z,38.16
2023-02-27T09:13:01.641Z,39.37
2023-02-27T09:14:03.381Z,38.72
2023-02-27T09:15:06.546Z,38.87
2023-02-27T09:16:08.527Z,39.50
2023-02-27T09:17:10.284Z,38.63
2023-02-27T09:18:12.353Z,38.75
2023-02-27T09:19:15.740Z,39.60
2023-02-27T09:20:17.750Z,39.98
2023-02-27T09:21:20.536Z,38.68
2023-02-27T09:22:22.332Z,39.00
2023-02-27T09:23:24.067Z,38.73
2023-02-27T09:24:25.836Z,38.07
2023-02-27T09:25:28.728Z,38.27
2023-02-27T09:26:43.461Z,38.84
2023-02-27T09:27:47.509Z,39.01
2023-02-27T09:28:49.725Z,38.28
2023-02-27T09:29:55.641Z,37.44
2023-02-27T09:31:05.969Z,38.03
2023-02-27T09:32:08.212Z,38.59
2023-02-27T09:33:09.980Z,37.38
2023-02-27T09:34:11.717Z,37.91
2023-02-27T09:35:15.950Z,38.59
2023-02-27T09:36:17.860Z,39.44
2023-02-27T09:37:20.140Z,39.44
2023-02-27T09:38:21.854Z,39.36
2023-02-27T09:39:23.613Z,39.48
2023-02-27T09:40:29.130Z,39.08
2023-02-27T09:41:33.505Z,38.28
2023-02-27T09:42:45.655Z,39.02
2023-02-27T09:43:49.613Z,38.42
2023-02-27T09:44:57.777Z,37.72
2023-02-27T09:46:01.379Z,37.79
2023-02-27T09:47:11.118Z,37.92
2023-02-27T09:48:34.054Z,36.95
2023-02-27T09:49:49.690Z,37.41
2023-02-27T09:50:52.800Z,37.24
2023-02-27T09:51:54.584Z,37.63
2023-02-27T09:52:57.467Z,36.95
2023-02-27T09:54:01.694Z,38.54
2023-02-27T09:55:11.687Z,38.58
2023-02-27T09:56:29.468Z,38.01
2023-02-27T09:57:41.185Z,37.61
2023-02-27T09:59:16.735Z,38.59
2023-02-27T10:00:24.252Z,36.28
2023-02-27T10:01:32.854Z,36.62
2023-02-27T10:03:03.287Z,36.81
2023-02-27T10:04:33.546Z,37.48
2023-02-27T10:06:14.630Z,37.92
2023-02-27T10:08:02.668Z,38.72
2023-02-27T10:09:16.320Z,37.55
2023-02-27T10:10:35.905Z,39.55
2023-02-27T10:12:14.561Z,38.96
2023-02-27T10:13:42.959Z,38.05
2023-02-27T10:14:57.699Z,37.73
2023-02-27T10:16:00.441Z,37.49
2023-02-27T10:17:06.534Z,36.77
2023-02-27T10:18:25.376Z,37.32
2023-02-27T10:19:34.250Z,38.37
2023-02-27T10:20:41.955Z,37.70
2023-02-27T10:21:48.980Z,38.17
2023-02-27T10:22:53.446Z,37.65
2023-02-27T10:24:02.068Z,37.56
2023-02-27T10:25:25.003Z,37.89
2023-02-27T10:26:39.653Z,38.25
2023-02-27T10:27:45.775Z,38.47
2023-02-27T10:28:47.740Z,38.09
2023-02-27T10:29:50.314Z,37.82
2023-02-27T10:30:56.037Z,37.57
2023-02-27T10:32:06.224Z,38.26
2023-02-27T10:33:28.119Z,38.40
2023-02-27T10:34:31.555Z,38.47
2023-02-27T10:35:39.557Z,37.99
2023-02-27T10:36:41.382Z,38.61
2023-02-27T10:37:49.784Z,38.78
2023-02-27T10:38:56.090Z,37.83
2023-02-27T10:40:04.536Z,38.37
2023-02-27T10:41:10.291Z,39.32
2023-02-27T10:42:13.784Z,39.33
2023-02-27T10:43:19.318Z,39.92
2023-02-27T10:44:21.457Z,39.65
2023-02-27T10:45:23.802Z,40.74
2023-02-27T10:46:29.549Z,41.48
2023-02-27T10:47:31.553Z,41.67
2023-02-27T10:48:33.549Z,41.06
2023-02-27T10:49:37.835Z,42.08
2023-02-27T10:50:43.209Z,42.39
2023-02-27T10:51:47.126Z,42.54
2023-02-27T10:52:55.173Z,42.42
2023-02-27T10:54:14.869Z,42.79
2023-02-27T10:55:20.304Z,43.50
2023-02-27T10:56:28.643Z,43.50
2023-02-27T10:57:36.815Z,43.19
2023-02-27T10:58:38.608Z,43.47
2023-02-27T10:59:41.869Z,43.72
2023-02-27T11:00:53.408Z,43.09
2023-02-27T11:01:57.197Z,43.51
2023-02-27T11:02:59.808Z,43.27
2023-02-27T11:04:01.532Z,42.83
2023-02-27T11:05:04.596Z,42.91
2023-02-27T11:06:19.867Z,42.64
2023-02-27T11:07:38.899Z,43.08
2023-02-27T11:08:40.654Z,42.66
2023-02-27T11:09:43.371Z,42.18
2023-02-27T11:11:06.908Z,40.99
2023-02-27T11:12:11.401Z,41.31
2023-02-27T11:13:24.787Z,41.27
2023-02-27T11:14:28.480Z,42.04
2023-02-27T11:15:36.533Z,41.94
2023-02-27T11:16:52.525Z,42.16
2023-02-27T11:17:55.238Z,41.68
2023-02-27T11:18:57.968Z,41.14
2023-02-27T11:20:02.365Z,42.04
2023-02-27T11:21:23.186Z,42.70
2023-02-27T11:22:29.948Z,44.26
2023-02-27T11:23:34.020Z,43.36
2023-02-27T11:24:35.809Z,42.64
2023-02-27T11:25:37.536Z,43.15
2023-02-27T11:26:53.349Z,42.49
2023-02-27T11:28:22.880Z,40.93
2023-02-27T11:29:25.071Z,40.57
2023-02-27T11:30:29.259Z,40.88
2023-02-27T11:31:32.948Z,41.30
2023-02-27T11:32:49.013Z,40.48
2023-02-27T11:33:57.581Z,39.50
2023-02-27T11:34:59.454Z,38.89
2023-02-27T11:36:02.459Z,40.46
2023-02-27T11:37:07.489Z,39.30
2023-02-27T11:38:19.508Z,39.47
2023-02-27T11:39:32.046Z,39.93
2023-02-27T11:40:39.539Z,40.42
2023-02-27T11:41:44.994Z,39.78
2023-02-27T11:42:53.644Z,40.29
2023-02-27T11:43:57.672Z,40.47
2023-02-27T11:45:07.564Z,39.98
2023-02-27T11:46:45.207Z,40.78
2023-02-27T11:47:40.691Z,41.46
2023-02-27T11:49:08.386Z,41.28
2023-02-27T11:50:16.381Z,41.92
2023-02-27T11:51:27.409Z,41.63
2023-02-27T11:52:32.377Z,41.56
2023-02-27T11:54:07.941Z,42.01
2023-02-27T11:55:17.958Z,41.79
2023-02-27T11:56:26.697Z,42.63
2023-02-27T11:57:34.694Z,42.54
2023-02-27T11:58:44.933Z,43.16
2023-02-27T11:59:47.953Z,43.57
2023-02-27T12:00:57.441Z,43.33
2023-02-27T12:02:11.442Z,43.42
2023-02-27T12:03:25.218Z,43.71
2023-02-27T12:04:39.987Z,43.25
2023-02-27T12:05:48.183Z,43.45
2023-02-27T12:07:07.758Z,43.42
2023-02-27T12:08:42.290Z,44.18
2023-02-27T12:10:11.181Z,44.46
2023-02-27T12:11:30.240Z,44.73
2023-02-27T12:12:44.298Z,44.36
2023-02-27T12:13:51.444Z,44.37
2023-02-27T12:15:01.178Z,44.50
2023-02-27T12:16:24.730Z,44.50
2023-02-27T12:17:35.069Z,44.51
2023-02-27T12:18:57.973Z,44.72
2023-02-27T12:20:21.214Z,44.29
2023-02-27T12:21:28.627Z,44.45
2023-02-27T12:22:35.808Z,43.91
2023-02-27T12:23:56.272Z,43.86
2023-02-27T12:25:04.575Z,44.45
2023-02-27T12:26:08.537Z,44.21
2023-02-27T12:27:19.253Z,44.42
2023-02-27T12:28:51.344Z,43.59
2023-02-27T12:30:24.428Z,43.80
2023-02-27T12:31:35.568Z,43.13
2023-02-27T12:32:43.793Z,43.53
2023-02-27T12:34:02.553Z,43.25
2023-02-27T12:35:17.429Z,42.53
2023-02-27T12:36:19.192Z,43.57
2023-02-27T12:37:26.520Z,43.37
2023-02-27T12:38:29.106Z,43.85
2023-02-27T12:39:32.277Z,43.50
2023-02-27T12:40:40.116Z,44.11
2023-02-27T12:42:03.967Z,43.91
2023-02-27T12:43:39.352Z,43.86
2023-02-27T12:44:42.012Z,44.25
2023-02-27T12:45:56.801Z,44.29
2023-02-27T12:47:18.522Z,44.34
2023-02-27T12:48:55.301Z,44.79
2023-02-27T12:50:03.037Z,44.60
2023-02-27T12:51:21.402Z,44.62
2023-02-27T12:52:56.886Z,44.59
2023-02-27T12:54:16.688Z,44.23
2023-02-27T12:55:27.092Z,44.35
2023-02-27T12:56:48.974Z,44.72
2023-02-27T12:58:22.331Z,44.79
2023-02-27T12:59:36.018Z,44.69
2023-02-27T13:00:50.690Z,43.69
2023-02-27T13:02:04.008Z,45.14
2023-02-27T13:03:15.291Z,44.45
2023-02-27T13:04:29.297Z,43.94
2023-02-27T13:05:51.769Z,45.12
2023-02-27T13:07:08.671Z,45.63
2023-02-27T13:08:44.528Z,45.36
2023-02-27T13:10:01.574Z,44.70
2023-02-27T13:11:21.833Z,45.51
2023-02-27T13:12:44.491Z,43.85
2023-02-27T13:13:56.642Z,43.93
2023-02-27T13:15:04.545Z,43.78
2023-02-27T13:16:12.611Z,44.92
2023-02-27T13:17:37.558Z,44.21
2023-02-27T13:18:45.770Z,43.02
2023-02-27T13:19:50.950Z,43.15
2023-02-27T13:21:04.330Z,43.95
2023-02-27T13:22:23.796Z,42.94
2023-02-27T13:23:28.268Z,43.06
2023-02-27T13:24:32.110Z,44.14
2023-02-27T13:25:38.314Z,42.66
2023-02-27T13:26:48.263Z,42.49
2023-02-27T13:28:02.173Z,42.53
2023-02-27T13:29:05.203Z,43.93
2023-02-27T13:30:23.009Z,42.97
2023-02-27T13:31:42.566Z,42.55
2023-02-27T13:32:44.855Z,42.62
2023-02-27T13:34:02.656Z,42.74
2023-02-27T13:35:28.420Z,42.48
2023-02-27T13:36:44.883Z,42.43
2023-02-27T13:38:27.699Z,43.45
2023-02-27T13:39:45.650Z,42.47
2023-02-27T13:40:47.437Z,42.73
2023-02-27T13:41:49.233Z,42.17
2023-02-27T13:42:53.464Z,42.16
2023-02-27T13:43:56.353Z,42.37
2023-02-27T13:45:25.527Z,42.64
2023-02-27T13:46:28.691Z,42.64
2023-02-27T13:47:33.109Z,42.39
2023-02-27T13:48:41.868Z,42.91
2023-02-27T13:49:43.869Z,42.56
2023-02-27T13:50:50.444Z,42.69
2023-02-27T13:51:53.779Z,41.45
2023-02-27T13:52:55.565Z,42.31
2023-02-27T13:54:18.402Z,42.33
2023-02-27T13:55:37.814Z,42.18
2023-02-27T13:56:44.617Z,42.37
2023-02-27T13:57:47.832Z,42.93
2023-02-27T13:58:50.952Z,42.06
2023-02-27T14:00:21.849Z,41.89
2023-02-27T14:01:28.863Z,42.04
2023-02-27T14:02:33.503Z,41.75
2023-02-27T14:03:35.435Z,42.33
2023-02-27T14:04:58.879Z,42.15
2023-02-27T14:06:03.811Z,42.10
2023-02-27T14:07:18.737Z,42.01
2023-02-27T14:08:37.544Z,41.69
2023-02-27T14:09:42.690Z,42.32
2023-02-27T14:11:10.267Z,42.07
2023-02-27T14:12:42.493Z,41.92
2023-02-27T14:13:45.887Z,42.93
2023-02-27T14:14:50.421Z,42.04
2023-02-27T14:15:56.227Z,42.10
2023-02-27T14:16:59.009Z,41.63
2023-02-27T14:18:15.947Z,41.40
2023-02-27T14:19:24.637Z,42.02
2023-02-27T14:20:27.369Z,41.81
2023-02-27T14:22:03.116Z,42.70
2023-02-27T14:23:17.104Z,42.39
2023-02-27T14:24:22.613Z,42.28
2023-02-27T14:25:33.841Z,42.25
2023-02-27T14:26:38.831Z,42.04
2023-02-27T14:27:43.577Z,42.60
2023-02-27T14:28:56.003Z,42.52
2023-02-27T14:30:02.949Z,42.62
2023-02-27T14:31:07.563Z,42.50
2023-02-27T14:32:22.292Z,42.74
2023-02-27T14:33:48.450Z,43.13
2023-02-27T14:34:52.314Z,42.70
2023-02-27T14:36:02.260Z,43.47
2023-02-27T14:37:10.305Z,42.44
2023-02-27T14:38:15.663Z,43.06
2023-02-27T14:39:28.821Z,42.28
2023-02-27T14:40:36.607Z,42.16